Dedham, Massachusetts
Current Conditions -  °F | °C
As of 9:53 AM on Thursday 30 Oct 2014 (Local Time) from KOWD Reporting Station
Clear Clear  
Wind Chill: 53°   Ceiling: Unl
Heat Index: 53°   Visibility: 10mi
Dew Point: 43°   Wind: 8mph
Humidity: 69%   Direction: 280°W
Pressure: 29.93"   Gusts: NA
Location:  42.25°N, 71.17°W
Report Text: KOWD 301353Z 28007KT 10SM CLR 12/06 A2993 RMK AO2 SLP135 T01170061
Loading
Personal Weather Stations






























Interactive Weather Map
Tropical Storm Tracking
New forecast layout! Learn more

10-Day Weather Forecast

Advertisements
Track Severe Weather on mobile